Aeroporto :
LOGIN :

Iscrizione | Disclaimer

   EN    FR    IT 

 










Sommario :    VFR   VFR Marginale   IFR   IFR Intensivo   IFR Molto Intensivo
Visibilità : 
Base nubi : 
>= 8 km
>= 3000ft
5 / 8 km
1000 / 3000 ft
1500m / 5 km
500 / 1000 ft
800 / 1500m
200 / 500 ft
< 800m
< 200 ft
Simboli :   Temporali  Nebbia  Neve Forte  Precipitazioni Forti  Vento > 20 kt
SIGMETs :   Varie  Temporali  Ghiacco  Turbolenza  Onda orograficha  Ceneri Vulcaniche






- Altitudine del aeroporto : 39 ft
- Codice IATA : ANR


EBAW - Anvers / Antwerpen Deurne

ULTIMO METAR :
  • 190520Z AUTO 27010KT CAVOK 05/02 Q1017

METARs OBSOLETI :
  • 190450Z AUTO 27008KT 9999 // FEW028/// 05/02 Q1017
  • 190420Z AUTO 28009KT 9999 // FEW029/// 06/02 Q1016
  • 190350Z AUTO 30016KT CAVOK 06/02 Q1015
  • 190320Z AUTO 29014KT CAVOK 06/02 Q1015
  • 190250Z AUTO 27014KT 9999 -SHRA SCT002/// BKN017/// OVC023/// 06/04 Q1014
  • 190220Z AUTO 26011KT 9999 // SCT021/// SCT025/// BKN028/// 06/04 Q1014

TAF TAF EBAW
Valido dal 19 a 06 ore il 19 a 15 ore UTC


190500Z 1906/1915 27012KT 9999 SCT025



MetMap, La meteo Aeronautica in un colpo d'occhio ! - Copyright ORBIFLY Dicembre 2007 - Disclaimer

ORBIFLY MET'MAP TEAM :

Programmazione e sviluppo : Alexandra Zaïnal
Concezione : Baudouin d'Aumeries
Aiuto per la programmazione : Marc-Olivier Méhu
Supporto tecnico e logistico : Manuel Goepfert
Aiuto per la traduzione : Arnaldo La Scala

Contatto : metmap@orbifly.com




FONTI E CREDITI :

   NOAA